Time;durP1;ratioP1;P1;durP2;ratioP2;P2;SDS_P1;SDS_P2;PMS_P1;PMS_P2;Temp;Humidity;BMP_temperature;BMP_pressure;BME280_temperature;BME280_humidity;BME280_pressure;Samples;Min_cycle;Max_cycle;Signal;HPM_P1;HPM_P2
2022/01/04 00:01:25;;;;;;;5.07;1.70;;;;;;;;;;4985393;28;20022;-81
2022/01/04 00:03:50;;;;;;;3.70;1.73;;;;;;;;;;4965693;28;20034;-80
2022/01/04 00:06:15;;;;;;;4.70;1.92;;;;;;;;;;4981670;28;20018;-81
2022/01/04 00:08:40;;;;;;;5.63;1.05;;;;;;;;;;4982115;28;20026;-81
2022/01/04 00:11:13;;;;;;;2.75;0.75;;;;;;;;;;4982397;28;20011;-81
2022/01/04 00:13:39;;;;;;;5.38;1.55;;;;;;;;;;4966895;28;20070;-80
2022/01/04 00:16:07;;;;;;;5.97;1.10;;;;;;;;;;4985218;28;20019;-80
2022/01/04 00:18:32;;;;;;;2.22;0.80;;;;;;;;;;4968017;28;20022;-80
2022/01/04 00:20:57;;;;;;;4.70;1.30;;;;;;;;;;4983688;28;20033;-80
2022/01/04 00:23:23;;;;;;;6.45;1.58;;;;;;;;;;4982457;28;20026;-81
2022/01/04 00:25:48;;;;;;;5.38;1.50;;;;;;;;;;4984609;28;20445;-81
2022/01/04 00:28:13;;;;;;;4.97;1.60;;;;;;;;;;4966850;28;20031;-81
2022/01/04 00:30:40;;;;;;;5.57;1.40;;;;;;;;;;4984195;28;20033;-81
2022/01/04 00:33:07;;;;;;;2.70;1.33;;;;;;;;;;4985153;28;20022;-81
2022/01/04 00:35:32;;;;;;;3.60;1.40;;;;;;;;;;4982876;28;20030;-81
2022/01/04 00:37:58;;;;;;;5.65;1.30;;;;;;;;;;4984710;28;20378;-81
2022/01/04 00:40:24;;;;;;;3.13;1.42;;;;;;;;;;4984253;28;20589;-80
2022/01/04 00:42:50;;;;;;;3.05;1.10;;;;;;;;;;4985894;28;20018;-80
2022/01/04 00:45:15;;;;;;;4.90;1.30;;;;;;;;;;4985561;28;20049;-80
2022/01/04 00:49:09;;;;;;;3.15;1.08;;;;;;;;;;4984735;28;20031;-80
2022/01/04 00:50:28;;;;;;;6.60;0.98;;;;;;;;;;4982637;28;20077;-80
2022/01/04 00:52:54;;;;;;;3.70;1.35;;;;;;;;;;4984257;28;20101;-80
2022/01/04 00:55:20;;;;;;;9.80;1.90;;;;;;;;;;4966954;28;20019;-80
2022/01/04 00:57:45;;;;;;;3.33;0.98;;;;;;;;;;4966708;28;20107;-81
2022/01/04 01:00:11;;;;;;;3.80;0.98;;;;;;;;;;4965516;28;20450;-80
2022/01/04 01:02:36;;;;;;;3.65;0.68;;;;;;;;;;4967397;28;20046;-80
2022/01/04 01:05:02;;;;;;;2.78;1.15;;;;;;;;;;4964874;28;20037;-80
2022/01/04 01:07:27;;;;;;;3.75;1.75;;;;;;;;;;4961975;28;20033;-80
2022/01/04 01:10:17;;;;;;;4.40;1.40;;;;;;;;;;4962491;28;20030;-80
2022/01/04 01:12:42;;;;;;;5.13;1.40;;;;;;;;;;4979751;28;20023;-80
2022/01/04 01:15:08;;;;;;;3.05;0.98;;;;;;;;;;4984794;28;20022;-80
2022/01/04 01:17:34;;;;;;;5.13;1.58;;;;;;;;;;4985803;28;20029;-80
2022/01/04 01:19:59;;;;;;;7.10;2.10;;;;;;;;;;4985347;28;20018;-80
2022/01/04 01:22:25;;;;;;;7.70;1.40;;;;;;;;;;4966335;28;20490;-80
2022/01/04 01:24:50;;;;;;;7.03;2.10;;;;;;;;;;4983256;28;20055;-80
2022/01/04 01:27:15;;;;;;;4.13;1.20;;;;;;;;;;4984306;28;20022;-80
2022/01/04 01:29:40;;;;;;;5.38;1.70;;;;;;;;;;4982939;28;20015;-80
2022/01/04 01:32:06;;;;;;;5.13;1.20;;;;;;;;;;4983943;28;20426;-80
2022/01/04 01:34:31;;;;;;;5.07;1.30;;;;;;;;;;4984410;28;20022;-81
2022/01/04 01:36:56;;;;;;;10.20;2.40;;;;;;;;;;4985976;28;20078;-80
2022/01/04 01:39:22;;;;;;;5.70;1.40;;;;;;;;;;4984460;28;20031;-80
2022/01/04 01:41:47;;;;;;;8.10;2.00;;;;;;;;;;4984761;28;20045;-80
2022/01/04 01:44:12;;;;;;;7.97;2.10;;;;;;;;;;4966418;28;20058;-80
2022/01/04 01:46:37;;;;;;;5.18;1.60;;;;;;;;;;4982438;28;20467;-80
2022/01/04 01:49:02;;;;;;;11.05;2.00;;;;;;;;;;4979882;28;20046;-80
2022/01/04 01:51:28;;;;;;;7.85;2.10;;;;;;;;;;4979873;28;20470;-80
2022/01/04 01:53:54;;;;;;;9.77;2.40;;;;;;;;;;4980708;28;20018;-80
2022/01/04 01:56:19;;;;;;;8.80;1.52;;;;;;;;;;4963479;28;20493;-79
2022/01/04 01:58:45;;;;;;;4.72;1.00;;;;;;;;;;4964804;28;20101;-81
2022/01/04 02:01:11;;;;;;;8.95;1.90;;;;;;;;;;4968521;28;20026;-81
2022/01/04 02:03:37;;;;;;;5.28;1.08;;;;;;;;;;4988428;28;20073;-80
2022/01/04 02:06:02;;;;;;;2.08;0.60;;;;;;;;;;4984188;28;20018;-80
2022/01/04 02:08:28;;;;;;;2.05;0.77;;;;;;;;;;4980545;28;20456;-79
2022/01/04 02:10:53;;;;;;;5.57;1.20;;;;;;;;;;4978893;28;20071;-79
2022/01/04 02:13:18;;;;;;;3.92;1.15;;;;;;;;;;4985761;28;20015;-80
2022/01/04 02:15:46;;;;;;;7.03;1.77;;;;;;;;;;4987890;28;20030;-82
2022/01/04 02:18:11;;;;;;;7.15;1.60;;;;;;;;;;4976177;28;20019;-80
2022/01/04 02:23:12;;;;;;;8.23;1.90;;;;;;;;;;5189589;23;20055;-82
2022/01/04 02:25:37;;;;;;;9.93;2.22;;;;;;;;;;4980312;28;20026;-81
2022/01/04 02:28:02;;;;;;;7.45;1.63;;;;;;;;;;4965847;28;20130;-81
2022/01/04 02:30:28;;;;;;;4.28;1.08;;;;;;;;;;4984656;28;20026;-81
2022/01/04 02:32:53;;;;;;;1.90;0.80;;;;;;;;;;4986979;28;20136;-85
2022/01/04 02:35:23;;;;;;;3.60;0.80;;;;;;;;;;4958896;28;20033;-85
2022/01/04 02:37:48;;;;;;;0.55;0.43;;;;;;;;;;4974450;28;20130;-84
2022/01/04 02:40:13;;;;;;;0.77;0.45;;;;;;;;;;4977097;28;20030;-82
2022/01/04 02:42:38;;;;;;;3.30;0.93;;;;;;;;;;4955940;28;20031;-82
2022/01/04 02:45:04;;;;;;;3.53;0.57;;;;;;;;;;4973453;28;20026;-83
2022/01/04 02:47:29;;;;;;;1.15;0.60;;;;;;;;;;4956789;28;20022;-82
2022/01/04 02:49:55;;;;;;;2.78;0.93;;;;;;;;;;4973396;28;20077;-83
2022/01/04 02:52:20;;;;;;;2.50;0.70;;;;;;;;;;4955800;28;20027;-82
2022/01/04 02:54:45;;;;;;;3.05;1.00;;;;;;;;;;4955837;28;20089;-85
2022/01/04 02:57:10;;;;;;;3.13;1.02;;;;;;;;;;4955723;28;20030;-82
2022/01/04 02:59:36;;;;;;;1.67;0.57;;;;;;;;;;4955656;28;20058;-85
2022/01/04 03:02:01;;;;;;;2.03;0.73;;;;;;;;;;4973542;28;20489;-82
2022/01/04 03:04:26;;;;;;;4.38;1.00;;;;;;;;;;4980381;28;20027;-80
2022/01/04 03:06:52;;;;;;;1.48;0.82;;;;;;;;;;4983403;28;20054;-82
2022/01/04 03:09:17;;;;;;;2.30;0.93;;;;;;;;;;4964751;28;20015;-80
2022/01/04 03:11:42;;;;;;;3.25;0.73;;;;;;;;;;4964727;28;20015;-81
2022/01/04 03:14:08;;;;;;;1.83;0.70;;;;;;;;;;4983404;28;20398;-81
2022/01/04 03:16:33;;;;;;;0.80;0.47;;;;;;;;;;4983778;28;20090;-81
2022/01/04 03:19:09;;;;;;;0.32;0.25;;;;;;;;;;4983876;28;20106;-81
2022/01/04 03:21:42;;;;;;;1.98;0.77;;;;;;;;;;4965346;28;20401;-81
2022/01/04 03:24:08;;;;;;;0.60;0.40;;;;;;;;;;4981239;28;20035;-80
2022/01/04 03:26:34;;;;;;;1.10;0.50;;;;;;;;;;4981566;28;20030;-80
2022/01/04 03:28:59;;;;;;;0.95;0.40;;;;;;;;;;4978074;28;20023;-82
2022/01/04 03:31:25;;;;;;;1.10;0.40;;;;;;;;;;4976437;28;20030;-82
2022/01/04 03:33:50;;;;;;;4.70;0.90;;;;;;;;;;4976271;28;20078;-83
2022/01/04 03:36:16;;;;;;;1.90;0.77;;;;;;;;;;4959440;28;20030;-87
2022/01/04 03:38:42;;;;;;;0.45;0.30;;;;;;;;;;4959402;28;20081;-87
2022/01/04 03:41:08;;;;;;;2.90;0.55;;;;;;;;;;4976965;28;20031;-87
2022/01/04 03:43:33;;;;;;;2.47;0.60;;;;;;;;;;4979326;28;20501;-84
2022/01/04 03:45:58;;;;;;;3.15;0.60;;;;;;;;;;4977034;28;20478;-84
2022/01/04 03:48:24;;;;;;;2.80;0.77;;;;;;;;;;4976497;28;20026;-87
2022/01/04 03:50:49;;;;;;;1.20;0.60;;;;;;;;;;4976443;28;20023;-86
2022/01/04 03:53:14;;;;;;;1.33;0.55;;;;;;;;;;4982438;28;20018;-82
2022/01/04 03:55:39;;;;;;;1.90;0.70;;;;;;;;;;4972496;28;20022;-82
2022/01/04 03:58:04;;;;;;;4.28;1.10;;;;;;;;;;4979884;28;20019;-83
2022/01/04 04:00:30;;;;;;;3.70;0.70;;;;;;;;;;4958666;28;20034;-86
2022/01/04 04:02:55;;;;;;;2.58;1.13;;;;;;;;;;4979862;28;20470;-83
2022/01/04 04:05:20;;;;;;;2.30;0.93;;;;;;;;;;4975580;28;20038;-82
2022/01/04 04:07:45;;;;;;;1.55;0.82;;;;;;;;;;4995537;28;20055;-81
2022/01/04 04:10:11;;;;;;;2.80;1.00;;;;;;;;;;4992801;28;20504;-85
2022/01/04 04:12:36;;;;;;;2.58;0.88;;;;;;;;;;4976820;28;20011;-83
2022/01/04 04:15:04;;;;;;;1.88;0.70;;;;;;;;;;4958733;28;20030;-84
2022/01/04 04:17:32;;;;;;;3.17;0.77;;;;;;;;;;4975640;28;20034;-84
2022/01/04 04:19:57;;;;;;;4.63;0.80;;;;;;;;;;4958189;28;20038;-84
2022/01/04 04:22:23;;;;;;;3.67;1.17;;;;;;;;;;4975622;28;20031;-84
2022/01/04 04:24:48;;;;;;;2.80;0.98;;;;;;;;;;4975336;28;20125;-83
2022/01/04 04:27:14;;;;;;;2.78;0.93;;;;;;;;;;4975787;28;20022;-85
2022/01/04 04:29:39;;;;;;;4.43;1.27;;;;;;;;;;4975531;28;20502;-85
2022/01/04 04:32:04;;;;;;;5.28;1.60;;;;;;;;;;4975512;28;20069;-84
2022/01/04 04:34:30;;;;;;;4.25;1.60;;;;;;;;;;4975548;28;20026;-84
2022/01/04 04:36:55;;;;;;;5.88;1.70;;;;;;;;;;4957868;28;20029;-85
2022/01/04 04:39:20;;;;;;;5.53;1.35;;;;;;;;;;4975387;28;20022;-85
2022/01/04 04:41:45;;;;;;;2.25;1.15;;;;;;;;;;4957970;28;20138;-85
2022/01/04 04:44:10;;;;;;;2.58;1.25;;;;;;;;;;4958504;28;20390;-85
2022/01/04 04:46:36;;;;;;;5.60;1.80;;;;;;;;;;4960495;28;20030;-85
2022/01/04 04:49:01;;;;;;;6.05;1.30;;;;;;;;;;4976182;28;20026;-80
2022/01/04 04:51:26;;;;;;;3.20;1.30;;;;;;;;;;4974585;28;20094;-80
2022/01/04 04:53:51;;;;;;;3.85;1.60;;;;;;;;;;4975038;28;20406;-85
2022/01/04 04:56:17;;;;;;;5.65;1.50;;;;;;;;;;4975064;28;20022;-83
2022/01/04 04:58:42;;;;;;;5.43;1.40;;;;;;;;;;4977579;28;20485;-82
2022/01/04 05:01:07;;;;;;;3.58;1.40;;;;;;;;;;4960856;28;20438;-82
2022/01/04 05:03:32;;;;;;;8.68;1.98;;;;;;;;;;4980725;28;20073;-82
2022/01/04 05:05:57;;;;;;;3.92;1.55;;;;;;;;;;4980175;28;20102;-81
2022/01/04 05:08:23;;;;;;;6.70;2.47;;;;;;;;;;4963757;28;20061;-81
2022/01/04 05:10:48;;;;;;;5.57;1.50;;;;;;;;;;4980824;28;20019;-81
2022/01/04 05:13:13;;;;;;;4.47;1.45;;;;;;;;;;4978874;28;20023;-82
2022/01/04 05:15:38;;;;;;;3.53;1.27;;;;;;;;;;4981055;28;20023;-81
2022/01/04 05:18:03;;;;;;;4.35;1.58;;;;;;;;;;4968011;28;20034;-84
2022/01/04 05:20:29;;;;;;;3.05;1.23;;;;;;;;;;4988878;28;20023;-82
2022/01/04 05:22:54;;;;;;;4.25;2.08;;;;;;;;;;4985416;28;20019;-82
2022/01/04 05:25:19;;;;;;;3.90;1.65;;;;;;;;;;4986809;28;20113;-83
2022/01/04 05:27:45;;;;;;;4.55;1.88;;;;;;;;;;4982351;28;20038;-85
2022/01/04 05:30:10;;;;;;;10.82;3.13;;;;;;;;;;4957607;28;20023;-84
2022/01/04 05:32:35;;;;;;;6.13;2.50;;;;;;;;;;4974910;28;20019;-85
2022/01/04 05:35:00;;;;;;;7.30;2.00;;;;;;;;;;4974772;28;20070;-87
2022/01/04 05:37:26;;;;;;;3.95;1.70;;;;;;;;;;4974908;28;20029;-85
2022/01/04 05:39:51;;;;;;;3.83;1.73;;;;;;;;;;4974943;28;20026;-87
2022/01/04 05:42:16;;;;;;;3.10;1.23;;;;;;;;;;4974353;28;20018;-86
2022/01/04 05:44:41;;;;;;;7.32;2.50;;;;;;;;;;4957066;28;20027;-87
2022/01/04 05:47:07;;;;;;;4.25;1.80;;;;;;;;;;4974022;28;20490;-87
2022/01/04 05:49:32;;;;;;;4.47;1.52;;;;;;;;;;4975440;28;20102;-87
2022/01/04 05:51:57;;;;;;;4.00;1.50;;;;;;;;;;4974631;28;20117;-88
2022/01/04 05:54:22;;;;;;;3.38;1.92;;;;;;;;;;4974216;28;20519;-88
2022/01/04 05:56:47;;;;;;;7.43;2.30;;;;;;;;;;4973494;28;20022;-88
2022/01/04 05:59:13;;;;;;;9.43;3.15;;;;;;;;;;4973806;28;20023;-87
2022/01/04 06:01:38;;;;;;;8.95;2.45;;;;;;;;;;4955998;28;20251;-84
2022/01/04 06:04:03;;;;;;;6.55;3.20;;;;;;;;;;4973384;28;20481;-86
2022/01/04 06:06:29;;;;;;;10.00;1.88;;;;;;;;;;4973596;28;20041;-86
2022/01/04 06:08:54;;;;;;;4.85;1.45;;;;;;;;;;4973412;28;20098;-86
2022/01/04 06:11:32;;;;;;;3.63;2.10;;;;;;;;;;4973398;28;20077;-87
2022/01/04 06:16:41;;;;;;;4.70;1.50;;;;;;;;;;4973293;28;20025;-85
2022/01/04 06:19:06;;;;;;;3.70;1.70;;;;;;;;;;4973199;28;20019;-88
2022/01/04 06:21:31;;;;;;;5.25;1.88;;;;;;;;;;4973664;28;20109;-86
2022/01/04 06:23:57;;;;;;;5.90;2.10;;;;;;;;;;4955892;28;20474;-85
2022/01/04 06:26:23;;;;;;;3.35;1.73;;;;;;;;;;4973380;28;20022;-85
2022/01/04 06:28:51;;;;;;;3.85;1.70;;;;;;;;;;4955514;28;20026;-85
2022/01/04 06:31:16;;;;;;;3.33;1.40;;;;;;;;;;4973569;28;20027;-85
2022/01/04 06:33:42;;;;;;;3.92;1.70;;;;;;;;;;4956399;28;20102;-86
2022/01/04 06:36:07;;;;;;;3.53;1.65;;;;;;;;;;4955846;28;20138;-84
2022/01/04 06:38:33;;;;;;;3.90;1.83;;;;;;;;;;4974283;28;20473;-84
2022/01/04 06:40:58;;;;;;;3.90;1.50;;;;;;;;;;4977297;28;20117;-86
2022/01/04 06:43:26;;;;;;;4.80;1.90;;;;;;;;;;4977469;28;20073;-84
2022/01/04 06:45:51;;;;;;;6.73;3.00;;;;;;;;;;4977593;28;20035;-86
2022/01/04 06:48:16;;;;;;;4.15;1.73;;;;;;;;;;4977606;28;20303;-85
2022/01/04 06:50:41;;;;;;;4.75;2.58;;;;;;;;;;4960127;28;20113;-87
2022/01/04 06:53:07;;;;;;;4.40;1.77;;;;;;;;;;4973662;28;20038;-81
2022/01/04 06:55:32;;;;;;;4.40;2.13;;;;;;;;;;4996215;28;20034;-82
2022/01/04 06:57:57;;;;;;;4.32;1.75;;;;;;;;;;4985064;28;20517;-87
2022/01/04 07:00:22;;;;;;;6.70;2.15;;;;;;;;;;4978173;28;20773;-88
2022/01/04 07:02:47;;;;;;;4.88;1.95;;;;;;;;;;4977972;28;20018;-87
2022/01/04 07:05:13;;;;;;;3.65;1.88;;;;;;;;;;4978518;28;20077;-87
2022/01/04 07:07:38;;;;;;;5.20;2.45;;;;;;;;;;4976562;28;20019;-86
2022/01/04 07:10:03;;;;;;;5.25;2.45;;;;;;;;;;4976459;28;20014;-86
2022/01/04 07:12:28;;;;;;;6.28;2.55;;;;;;;;;;4975915;28;20090;-85
2022/01/04 07:14:54;;;;;;;9.70;3.47;;;;;;;;;;4976481;28;20376;-84
2022/01/04 07:17:19;;;;;;;5.55;2.53;;;;;;;;;;4959964;28;20023;-84
2022/01/04 07:19:46;;;;;;;6.13;2.47;;;;;;;;;;4976351;28;20034;-87
2022/01/04 07:22:11;;;;;;;5.35;2.55;;;;;;;;;;4976282;28;20019;-85
2022/01/04 07:24:36;;;;;;;6.28;2.72;;;;;;;;;;4976716;28;20026;-86
2022/01/04 07:27:01;;;;;;;7.53;3.20;;;;;;;;;;4976205;28;20014;-88
2022/01/04 07:29:27;;;;;;;6.53;2.95;;;;;;;;;;4976331;28;20018;-87
2022/01/04 07:31:52;;;;;;;6.90;2.70;;;;;;;;;;4976176;28;20092;-88
2022/01/04 07:34:17;;;;;;;4.95;2.60;;;;;;;;;;4976359;28;20011;-88
2022/01/04 07:36:42;;;;;;;5.20;2.53;;;;;;;;;;4959131;28;20188;-86
2022/01/04 07:39:08;;;;;;;8.25;2.65;;;;;;;;;;4976903;28;20070;-85
2022/01/04 07:41:33;;;;;;;4.82;2.60;;;;;;;;;;4976023;28;20025;-87
2022/01/04 07:43:58;;;;;;;7.43;2.80;;;;;;;;;;4977059;28;20224;-86
2022/01/04 07:46:25;;;;;;;5.18;3.10;;;;;;;;;;4977539;28;20022;-87
2022/01/04 07:48:50;;;;;;;9.70;3.60;;;;;;;;;;4959361;28;20057;-87
2022/01/04 07:51:16;;;;;;;7.05;3.63;;;;;;;;;;4975986;28;20046;-86
2022/01/04 07:53:41;;;;;;;6.38;3.50;;;;;;;;;;4958701;28;20022;-86
2022/01/04 07:56:06;;;;;;;5.65;2.83;;;;;;;;;;4976094;28;20019;-87
2022/01/04 07:58:32;;;;;;;8.45;3.50;;;;;;;;;;4976484;28;20089;-88
2022/01/04 08:00:57;;;;;;;6.70;3.60;;;;;;;;;;4976625;28;20387;-87
2022/01/04 08:03:22;;;;;;;4.32;2.65;;;;;;;;;;4976292;28;20034;-85
2022/01/04 08:05:47;;;;;;;6.78;2.95;;;;;;;;;;4976218;28;20069;-88
2022/01/04 08:08:13;;;;;;;6.30;2.60;;;;;;;;;;4959208;28;20026;-85
2022/01/04 08:10:38;;;;;;;8.60;4.10;;;;;;;;;;4976834;28;20019;-87
2022/01/04 08:13:03;;;;;;;9.02;4.13;;;;;;;;;;4976626;28;20767;-87
2022/01/04 08:15:29;;;;;;;6.03;3.10;;;;;;;;;;4976842;28;20026;-87
2022/01/04 08:17:54;;;;;;;7.15;3.13;;;;;;;;;;4976817;28;20051;-84
2022/01/04 08:20:20;;;;;;;6.55;3.20;;;;;;;;;;4976878;28;20027;-85
2022/01/04 08:22:45;;;;;;;8.20;3.08;;;;;;;;;;4976752;28;20031;-84
2022/01/04 08:25:10;;;;;;;6.82;3.13;;;;;;;;;;4978025;28;20405;-86
2022/01/04 08:27:36;;;;;;;8.43;2.63;;;;;;;;;;4961485;28;20050;-88
2022/01/04 08:30:03;;;;;;;5.80;2.58;;;;;;;;;;4982356;28;20023;-85
2022/01/04 08:32:28;;;;;;;4.35;2.60;;;;;;;;;;4982764;28;20031;-86
2022/01/04 08:34:53;;;;;;;5.20;3.00;;;;;;;;;;4978528;28;20186;-88
2022/01/04 08:37:19;;;;;;;5.05;2.80;;;;;;;;;;4978467;28;20549;-86
2022/01/04 08:39:44;;;;;;;4.95;2.60;;;;;;;;;;4964645;28;20121;-84
2022/01/04 08:42:09;;;;;;;5.07;2.83;;;;;;;;;;4968196;28;20540;-83
2022/01/04 08:44:39;;;;;;;6.43;3.25;;;;;;;;;;4977607;28;20031;-84
2022/01/04 08:47:06;;;;;;;7.20;2.45;;;;;;;;;;4976919;28;20033;-85
2022/01/04 08:49:31;;;;;;;6.75;2.28;;;;;;;;;;4958571;28;20540;-84
2022/01/04 08:51:56;;;;;;;5.15;2.42;;;;;;;;;;4975872;28;20050;-87
2022/01/04 08:54:21;;;;;;;3.38;1.73;;;;;;;;;;4978661;28;20022;-85
2022/01/04 08:56:46;;;;;;;4.32;1.80;;;;;;;;;;4978157;28;20027;-86
2022/01/04 08:59:13;;;;;;;4.78;2.13;;;;;;;;;;4976045;28;20026;-85
2022/01/04 09:01:39;;;;;;;8.68;3.40;;;;;;;;;;4959072;28;20051;-85
2022/01/04 09:04:06;;;;;;;5.43;2.80;;;;;;;;;;4960856;28;20080;-88
2022/01/04 09:06:32;;;;;;;9.90;3.17;;;;;;;;;;4978114;28;20175;-87
2022/01/04 09:08:57;;;;;;;5.75;3.08;;;;;;;;;;4977054;28;20023;-87
2022/01/04 09:11:23;;;;;;;7.68;3.00;;;;;;;;;;4961255;28;20026;-88
2022/01/04 09:13:49;;;;;;;5.05;2.88;;;;;;;;;;4977936;28;20018;-86
2022/01/04 09:18:50;;;;;;;5.35;2.50;;;;;;;;;;4977209;28;20027;-85
2022/01/04 09:21:17;;;;;;;8.57;3.17;;;;;;;;;;4976570;28;20029;-85
2022/01/04 09:23:43;;;;;;;4.55;2.30;;;;;;;;;;4976276;28;20042;-84
2022/01/04 09:26:09;;;;;;;7.07;3.00;;;;;;;;;;4958850;28;20022;-88
2022/01/04 09:28:35;;;;;;;5.55;2.80;;;;;;;;;;4975810;28;20486;-89
2022/01/04 09:31:00;;;;;;;4.57;2.50;;;;;;;;;;4975839;28;20043;-82
2022/01/04 09:33:25;;;;;;;4.05;1.90;;;;;;;;;;4977571;28;20146;-90
2022/01/04 09:35:51;;;;;;;3.38;1.70;;;;;;;;;;4977037;28;20102;-89
2022/01/04 09:38:17;;;;;;;4.45;1.98;;;;;;;;;;4976194;28;20075;-87
2022/01/04 09:40:43;;;;;;;3.63;2.28;;;;;;;;;;4964641;28;20022;-86
2022/01/04 09:43:08;;;;;;;4.63;1.60;;;;;;;;;;4962369;28;20027;-89
2022/01/04 09:45:33;;;;;;;4.75;1.77;;;;;;;;;;4965857;28;20050;-87
2022/01/04 09:47:59;;;;;;;7.55;2.58;;;;;;;;;;4980567;28;20030;-88
2022/01/04 09:50:24;;;;;;;14.85;7.55;;;;;;;;;;4961918;28;20026;-88
2022/01/04 09:52:55;;;;;;;7.03;3.90;;;;;;;;;;4976474;28;20145;-87
2022/01/04 09:55:20;;;;;;;9.75;5.03;;;;;;;;;;4961166;28;20034;-89
2022/01/04 09:57:46;;;;;;;9.73;3.45;;;;;;;;;;4956822;28;20023;-88
2022/01/04 10:00:15;;;;;;;7.28;3.42;;;;;;;;;;4957559;28;20041;-89
2022/01/04 10:02:41;;;;;;;9.00;4.07;;;;;;;;;;4976305;28;20027;-88
2022/01/04 10:05:17;;;;;;;7.20;2.53;;;;;;;;;;4962633;28;20033;-84
2022/01/04 10:07:44;;;;;;;4.32;2.00;;;;;;;;;;4989837;28;20018;-85
2022/01/04 10:10:11;;;;;;;3.15;1.35;;;;;;;;;;4987495;28;20030;-86
2022/01/04 10:12:55;;;;;;;5.65;1.40;;;;;;;;;;4979001;28;20019;-82
2022/01/04 10:15:34;;;;;;;4.50;1.80;;;;;;;;;;4994224;28;20015;-82
2022/01/04 10:18:12;;;;;;;3.60;1.55;;;;;;;;;;4979993;28;20095;-83
2022/01/04 10:20:38;;;;;;;6.22;1.55;;;;;;;;;;4980811;28;20003;-84
2022/01/04 10:23:17;;;;;;;5.05;1.60;;;;;;;;;;4997584;28;20098;-82
2022/01/04 10:25:45;;;;;;;4.82;2.17;;;;;;;;;;4998420;28;20034;-83
2022/01/04 10:28:11;;;;;;;4.70;2.20;;;;;;;;;;4981725;28;20029;-84
2022/01/04 10:30:39;;;;;;;4.47;2.20;;;;;;;;;;4982014;28;20079;-83
2022/01/04 10:33:07;;;;;;;4.43;2.50;;;;;;;;;;5155564;23;20118;-86
2022/01/04 10:35:32;;;;;;;10.10;3.50;;;;;;;;;;4981535;28;20003;-83
2022/01/04 10:38:00;;;;;;;6.72;2.88;;;;;;;;;;4978427;28;20496;-84
2022/01/04 10:40:27;;;;;;;4.82;2.33;;;;;;;;;;4991261;28;20019;-85
2022/01/04 10:42:53;;;;;;;5.75;3.03;;;;;;;;;;4992567;28;20023;-82
2022/01/04 10:45:32;;;;;;;4.07;1.92;;;;;;;;;;4998652;28;20022;-83
2022/01/04 10:48:14;;;;;;;5.03;2.00;;;;;;;;;;4997684;28;20079;-82
2022/01/04 10:50:42;;;;;;;3.83;1.67;;;;;;;;;;4998223;28;20030;-82
2022/01/04 10:53:14;;;;;;;6.93;1.65;;;;;;;;;;4979797;28;20037;-84
2022/01/04 10:55:39;;;;;;;7.15;2.00;;;;;;;;;;4998281;28;20110;-84
2022/01/04 10:58:05;;;;;;;3.72;1.77;;;;;;;;;;4997732;28;20034;-86
2022/01/04 11:00:30;;;;;;;25.90;10.15;;;;;;;;;;4976557;28;20363;-85
2022/01/04 11:02:58;;;;;;;5.85;2.65;;;;;;;;;;4961511;28;20021;-90
2022/01/04 11:05:24;;;;;;;2.72;1.40;;;;;;;;;;4975615;28;20029;-83
2022/01/04 11:08:17;;;;;;;4.05;1.75;;;;;;;;;;4974986;28;20026;-88
2022/01/04 11:10:43;;;;;;;3.78;1.70;;;;;;;;;;4975318;28;20034;-86
2022/01/04 11:13:08;;;;;;;3.40;1.65;;;;;;;;;;4983958;28;20045;-83
2022/01/04 11:15:34;;;;;;;3.50;1.80;;;;;;;;;;4996525;28;20011;-88
2022/01/04 11:17:59;;;;;;;3.90;2.22;;;;;;;;;;4974420;28;20026;-88
2022/01/04 11:20:25;;;;;;;6.63;2.85;;;;;;;;;;4975622;28;20101;-89
2022/01/04 11:22:50;;;;;;;7.18;2.47;;;;;;;;;;4974923;28;20094;-90
2022/01/04 11:25:16;;;;;;;5.97;3.00;;;;;;;;;;4975824;28;20406;-90
2022/01/04 11:27:42;;;;;;;5.03;2.40;;;;;;;;;;4977570;28;20027;-89
2022/01/04 11:30:20;;;;;;;5.07;2.40;;;;;;;;;;4963094;28;20359;-89
2022/01/04 11:32:48;;;;;;;7.13;3.42;;;;;;;;;;4960010;28;20030;-89
2022/01/04 11:35:16;;;;;;;4.53;2.47;;;;;;;;;;4977481;28;20023;-89
2022/01/04 11:37:50;;;;;;;6.10;2.50;;;;;;;;;;4976903;28;20022;-89
2022/01/04 11:40:22;;;;;;;5.90;2.50;;;;;;;;;;4977715;28;20019;-90
2022/01/04 11:42:47;;;;;;;5.40;2.15;;;;;;;;;;4977691;28;20018;-89
2022/01/04 11:45:16;;;;;;;5.68;2.70;;;;;;;;;;4977970;28;20573;-86
2022/01/04 11:47:51;;;;;;;3.08;1.70;;;;;;;;;;4977903;28;20022;-89
2022/01/04 11:50:21;;;;;;;4.68;2.08;;;;;;;;;;4964083;28;20509;-89
2022/01/04 11:52:46;;;;;;;5.82;2.40;;;;;;;;;;4984725;28;20025;-87
2022/01/04 11:55:31;;;;;;;5.00;2.50;;;;;;;;;;4966243;28;20026;-89
2022/01/04 11:58:02;;;;;;;4.45;2.25;;;;;;;;;;4983431;28;20030;-89
2022/01/04 12:00:29;;;;;;;5.75;2.20;;;;;;;;;;4961889;28;20027;-89
2022/01/04 12:03:11;;;;;;;4.88;2.38;;;;;;;;;;4979674;28;20019;-89
2022/01/04 12:05:38;;;;;;;4.88;2.20;;;;;;;;;;4960943;28;20496;-90
2022/01/04 12:08:14;;;;;;;7.10;2.60;;;;;;;;;;4960962;28;20160;-87
2022/01/04 12:10:41;;;;;;;6.78;2.70;;;;;;;;;;4977512;28;20015;-91
2022/01/04 12:13:09;;;;;;;6.18;2.10;;;;;;;;;;4959946;28;20014;-88
2022/01/04 12:15:34;;;;;;;5.38;2.33;;;;;;;;;;4977466;28;20019;-87
2022/01/04 12:18:02;;;;;;;5.95;2.40;;;;;;;;;;4972315;28;20033;-89
2022/01/04 12:20:43;;;;;;;5.73;2.77;;;;;;;;;;4969640;28;20030;-91
2022/01/04 12:23:26;;;;;;;4.93;2.15;;;;;;;;;;4957774;28;20360;-90
2022/01/04 12:26:14;;;;;;;4.00;1.88;;;;;;;;;;4968632;28;20034;-89
2022/01/04 12:28:55;;;;;;;5.85;2.90;;;;;;;;;;4984707;28;20197;-91
2022/01/04 12:31:22;;;;;;;7.13;2.00;;;;;;;;;;4960505;28;20026;-89
2022/01/04 12:33:50;;;;;;;4.75;1.98;;;;;;;;;;4970042;28;20026;-90
2022/01/04 12:36:33;;;;;;;4.47;1.80;;;;;;;;;;4981264;28;20121;-90
2022/01/04 12:38:59;;;;;;;4.63;2.22;;;;;;;;;;4962715;28;20853;-92
2022/01/04 12:41:25;;;;;;;5.40;1.98;;;;;;;;;;4977428;28;20074;-88
2022/01/04 12:43:51;;;;;;;3.78;1.90;;;;;;;;;;4978140;28;20131;-89
2022/01/04 12:46:28;;;;;;;8.55;3.03;;;;;;;;;;4956220;29;20038;-90
2022/01/04 12:48:56;;;;;;;6.63;2.60;;;;;;;;;;4971384;28;20094;-90
2022/01/04 12:51:21;;;;;;;5.57;2.85;;;;;;;;;;4977144;28;20027;-88
2022/01/04 12:53:46;;;;;;;5.72;2.72;;;;;;;;;;4961138;28;20023;-86
2022/01/04 12:56:11;;;;;;;4.97;2.60;;;;;;;;;;4976232;28;20844;-87
2022/01/04 12:58:37;;;;;;;6.15;2.60;;;;;;;;;;4962030;28;20046;-89
2022/01/04 13:01:02;;;;;;;4.28;2.30;;;;;;;;;;4959078;28;20033;-90
2022/01/04 13:03:31;;;;;;;3.97;2.10;;;;;;;;;;4961764;28;20031;-86
2022/01/04 13:06:00;;;;;;;4.75;2.80;;;;;;;;;;4964269;28;20039;-88
2022/01/04 13:08:29;;;;;;;4.13;2.00;;;;;;;;;;4959115;28;20354;-88
2022/01/04 13:11:07;;;;;;;5.75;2.78;;;;;;;;;;4959538;28;20122;-89
2022/01/04 13:13:32;;;;;;;4.50;2.30;;;;;;;;;;4976880;28;20105;-88
2022/01/04 13:16:17;;;;;;;5.68;2.85;;;;;;;;;;4973103;28;20054;-89
2022/01/04 13:18:42;;;;;;;6.38;2.70;;;;;;;;;;4963697;28;20038;-86
2022/01/04 13:21:07;;;;;;;4.40;2.63;;;;;;;;;;4972390;28;20027;-89
2022/01/04 13:23:39;;;;;;;4.07;2.10;;;;;;;;;;4959474;28;21218;-87
2022/01/04 13:26:04;;;;;;;6.07;2.25;;;;;;;;;;4977364;28;20363;-89
2022/01/04 13:28:30;;;;;;;3.58;1.83;;;;;;;;;;4974494;28;20102;-91
2022/01/04 13:30:55;;;;;;;3.40;1.70;;;;;;;;;;4939312;29;20019;-90
2022/01/04 13:33:23;;;;;;;4.60;1.80;;;;;;;;;;4956824;29;20552;-90
2022/01/04 13:35:49;;;;;;;5.10;1.93;;;;;;;;;;4939342;29;20501;-90
2022/01/04 13:38:21;;;;;;;3.53;1.50;;;;;;;;;;4956525;29;20249;-88
2022/01/04 13:40:47;;;;;;;4.25;1.45;;;;;;;;;;4957405;29;20038;-90
2022/01/04 13:43:14;;;;;;;2.67;1.20;;;;;;;;;;4942274;29;20019;-91
2022/01/04 13:45:45;;;;;;;4.82;1.60;;;;;;;;;;4942466;29;20027;-91
2022/01/04 13:48:11;;;;;;;5.15;1.27;;;;;;;;;;4960557;28;20023;-91
2022/01/04 13:50:37;;;;;;;2.65;1.10;;;;;;;;;;4939628;29;20023;-90
2022/01/04 13:53:13;;;;;;;4.28;2.10;;;;;;;;;;4955636;29;20050;-93
2022/01/04 13:55:50;;;;;;;2.00;1.05;;;;;;;;;;4939326;29;20082;-90
2022/01/04 13:58:34;;;;;;;3.03;1.25;;;;;;;;;;4951639;28;20027;-89
2022/01/04 14:01:11;;;;;;;3.22;1.02;;;;;;;;;;4976149;28;20029;-90
2022/01/04 14:03:36;;;;;;;2.35;0.85;;;;;;;;;;4958547;28;20019;-88
2022/01/04 14:06:02;;;;;;;2.78;0.90;;;;;;;;;;4973443;28;20063;-87
2022/01/04 14:08:46;;;;;;;1.65;0.90;;;;;;;;;;4973194;28;20026;-86
2022/01/04 14:11:11;;;;;;;1.67;0.60;;;;;;;;;;4956575;28;20031;-85
2022/01/04 14:13:37;;;;;;;2.92;0.80;;;;;;;;;;4974446;28;20386;-87
2022/01/04 14:16:06;;;;;;;1.85;0.95;;;;;;;;;;4974483;28;20022;-83
2022/01/04 14:18:31;;;;;;;3.60;0.90;;;;;;;;;;4974844;28;20019;-87
2022/01/04 14:20:57;;;;;;;3.20;0.90;;;;;;;;;;4957664;28;20038;-87
2022/01/04 14:23:33;;;;;;;2.95;1.20;;;;;;;;;;4956170;28;20023;-88
2022/01/04 14:28:44;;;;;;;3.05;1.40;;;;;;;;;;4933279;29;20495;-86
2022/01/04 14:31:16;;;;;;;3.50;1.30;;;;;;;;;;4935711;29;20030;-86
2022/01/04 14:33:42;;;;;;;5.50;1.50;;;;;;;;;;4918677;29;20020;-85
2022/01/04 14:36:07;;;;;;;3.42;1.38;;;;;;;;;;4918578;29;20018;-86
2022/01/04 14:38:32;;;;;;;5.10;2.42;;;;;;;;;;4917682;29;20062;-85
2022/01/04 14:40:57;;;;;;;3.30;1.60;;;;;;;;;;4918385;29;20090;-87
2022/01/04 14:43:25;;;;;;;4.50;1.60;;;;;;;;;;4917990;29;20030;-85
2022/01/04 14:45:50;;;;;;;2.85;1.52;;;;;;;;;;4918293;29;20026;-85
2022/01/04 14:48:20;;;;;;;3.63;1.35;;;;;;;;;;4918107;29;20027;-80
2022/01/04 14:50:45;;;;;;;4.18;1.52;;;;;;;;;;4918108;29;20020;-84
2022/01/04 14:53:11;;;;;;;3.80;1.60;;;;;;;;;;4935375;29;20534;-83